createdAt,value
2022-08-12T00:01:05.914Z,3.30
2022-08-12T00:02:26.312Z,3.00
2022-08-12T00:03:46.565Z,3.50
2022-08-12T00:05:07.321Z,3.30
2022-08-12T00:06:28.314Z,3.22
2022-08-12T00:07:50.870Z,3.03
2022-08-12T00:09:11.299Z,3.80
2022-08-12T00:10:31.747Z,3.17
2022-08-12T00:11:51.727Z,3.05
2022-08-12T00:13:13.981Z,3.53
2022-08-12T00:14:34.426Z,3.35
2022-08-12T00:15:54.875Z,2.90
2022-08-12T00:17:15.658Z,3.15
2022-08-12T00:18:35.701Z,3.10
2022-08-12T00:19:56.166Z,3.30
2022-08-12T00:21:16.318Z,3.20
2022-08-12T00:22:37.198Z,3.30
2022-08-12T00:24:00.728Z,3.88
2022-08-12T00:26:01.238Z,3.72
2022-08-12T00:27:03.025Z,3.47
2022-08-12T00:28:24.053Z,3.75
2022-08-12T00:29:47.787Z,3.83
2022-08-12T00:31:08.811Z,4.00
2022-08-12T00:32:35.447Z,4.03
2022-08-12T00:33:57.006Z,3.85
2022-08-12T00:35:18.907Z,3.63
2022-08-12T00:36:44.991Z,3.20
2022-08-12T00:38:05.261Z,3.50
2022-08-12T00:39:25.492Z,3.92
2022-08-12T00:40:46.532Z,3.70
2022-08-12T00:42:08.620Z,3.53
2022-08-12T00:43:14.671Z,3.70
2022-08-12T00:44:19.232Z,4.07
2022-08-12T00:45:24.519Z,4.05
2022-08-12T00:46:42.322Z,4.00
2022-08-12T00:47:44.573Z,3.65
2022-08-12T00:48:47.992Z,4.15
2022-08-12T00:49:50.404Z,3.83
2022-08-12T00:50:55.504Z,3.78
2022-08-12T00:52:11.883Z,4.05
2022-08-12T00:53:15.081Z,4.38
2022-08-12T00:54:20.878Z,3.50
2022-08-12T00:55:22.675Z,3.53
2022-08-12T00:56:28.641Z,3.70
2022-08-12T00:57:38.768Z,2.97
2022-08-12T00:58:47.937Z,3.42
2022-08-12T00:59:59.943Z,3.58
2022-08-12T01:01:06.734Z,3.90
2022-08-12T01:02:12.641Z,3.63
2022-08-12T01:03:18.565Z,3.75
2022-08-12T01:04:40.064Z,3.70
2022-08-12T01:06:03.676Z,3.65
2022-08-12T01:07:24.558Z,3.70
2022-08-12T01:08:44.591Z,3.83
2022-08-12T01:10:06.510Z,3.83
2022-08-12T01:11:27.602Z,3.85
2022-08-12T01:12:29.920Z,3.83
2022-08-12T01:13:34.912Z,4.30
2022-08-12T01:14:37.303Z,3.28
2022-08-12T01:15:39.520Z,4.03
2022-08-12T01:16:41.419Z,3.92
2022-08-12T01:17:45.223Z,4.47
2022-08-12T01:18:47.826Z,3.63
2022-08-12T01:19:55.923Z,4.20
2022-08-12T01:21:16.669Z,4.55
2022-08-12T01:22:33.341Z,3.92
2022-08-12T01:23:59.582Z,4.07
2022-08-12T01:25:24.802Z,4.25
2022-08-12T01:26:26.681Z,3.92
2022-08-12T01:27:29.919Z,3.90
2022-08-12T01:28:35.078Z,4.40
2022-08-12T01:29:42.239Z,4.22
2022-08-12T01:30:44.301Z,3.95
2022-08-12T01:31:50.063Z,4.07
2022-08-12T01:32:56.057Z,4.55
2022-08-12T01:34:37.005Z,4.30
2022-08-12T01:35:44.586Z,4.30
2022-08-12T01:37:02.288Z,4.38
2022-08-12T01:38:08.403Z,4.10
2022-08-12T01:39:10.949Z,4.68
2022-08-12T01:40:35.259Z,3.85
2022-08-12T01:41:40.691Z,4.18
2022-08-12T01:42:51.070Z,4.30
2022-08-12T01:43:55.108Z,4.38
2022-08-12T01:44:58.007Z,4.40
2022-08-12T01:46:12.664Z,4.43
2022-08-12T01:47:51.813Z,4.28
2022-08-12T01:49:31.872Z,4.18
2022-08-12T01:52:11.501Z,4.35
2022-08-12T01:52:43.429Z,4.05
2022-08-12T01:54:04.626Z,4.30
2022-08-12T01:55:07.351Z,4.10
2022-08-12T01:56:11.486Z,4.50
2022-08-12T01:57:59.104Z,4.47
2022-08-12T01:59:22.531Z,4.55
2022-08-12T02:00:36.067Z,4.50
2022-08-12T02:01:50.399Z,5.05
2022-08-12T02:03:12.405Z,4.82
2022-08-12T02:04:41.693Z,4.18
2022-08-12T02:06:20.567Z,4.32
2022-08-12T02:08:22.478Z,4.47
2022-08-12T02:10:00.007Z,4.70
2022-08-12T02:11:20.032Z,4.40
2022-08-12T02:12:34.654Z,4.70
2022-08-12T02:13:55.354Z,4.70
2022-08-12T02:15:44.748Z,5.10
2022-08-12T02:16:49.308Z,4.68
2022-08-12T02:18:13.036Z,5.22
2022-08-12T02:19:44.241Z,4.80
2022-08-12T02:21:04.231Z,4.55
2022-08-12T02:22:27.529Z,4.88
2022-08-12T02:23:30.853Z,5.15
2022-08-12T02:24:34.427Z,5.30
2022-08-12T02:25:44.851Z,4.95
2022-08-12T02:26:50.577Z,5.22
2022-08-12T02:27:55.045Z,4.95
2022-08-12T02:28:57.393Z,5.07
2022-08-12T02:29:59.166Z,5.15
2022-08-12T02:31:08.957Z,5.38
2022-08-12T02:32:11.171Z,5.72
2022-08-12T02:33:13.276Z,5.72
2022-08-12T02:34:16.611Z,5.40
2022-08-12T02:35:21.267Z,5.30
2022-08-12T02:36:23.737Z,5.18
2022-08-12T02:37:28.821Z,4.93
2022-08-12T02:38:31.833Z,5.72
2022-08-12T02:39:36.040Z,5.53
2022-08-12T02:40:39.969Z,5.72
2022-08-12T02:41:47.080Z,5.53
2022-08-12T02:42:55.149Z,5.30
2022-08-12T02:44:00.889Z,5.40
2022-08-12T02:45:07.147Z,5.05
2022-08-12T02:46:14.438Z,5.45
2022-08-12T02:48:00.148Z,5.97
2022-08-12T02:48:58.289Z,5.57
2022-08-12T02:50:03.569Z,5.75
2022-08-12T02:51:09.391Z,5.43
2022-08-12T02:52:12.991Z,5.40
2022-08-12T02:53:15.205Z,5.80
2022-08-12T02:54:17.407Z,5.97
2022-08-12T02:55:34.103Z,5.65
2022-08-12T02:56:40.879Z,5.18
2022-08-12T02:57:44.621Z,5.40
2022-08-12T02:58:46.607Z,5.65
2022-08-12T02:59:49.834Z,5.18
2022-08-12T03:00:51.933Z,5.65
2022-08-12T03:01:56.222Z,5.72
2022-08-12T03:03:04.719Z,5.93
2022-08-12T03:04:15.401Z,5.97
2022-08-12T03:05:24.313Z,5.57
2022-08-12T03:06:32.197Z,5.47
2022-08-12T03:07:56.233Z,5.93
2022-08-12T03:09:03.932Z,6.32
2022-08-12T03:10:13.023Z,6.07
2022-08-12T03:11:27.200Z,5.72
2022-08-12T03:12:33.983Z,6.47
2022-08-12T03:13:41.542Z,6.13
2022-08-12T03:14:43.630Z,6.30
2022-08-12T03:15:45.793Z,6.13
2022-08-12T03:16:57.504Z,6.50
2022-08-12T03:18:27.232Z,6.38
2022-08-12T03:19:24.805Z,6.13
2022-08-12T03:20:28.523Z,6.95
2022-08-12T03:21:53.103Z,6.20
2022-08-12T03:22:59.128Z,5.80
2022-08-12T03:24:03.514Z,6.35
2022-08-12T03:25:06.133Z,6.22
2022-08-12T03:26:08.109Z,6.60
2022-08-12T03:27:12.938Z,6.38
2022-08-12T03:28:34.584Z,6.28
2022-08-12T03:29:50.001Z,6.63
2022-08-12T03:30:56.765Z,6.45
2022-08-12T03:32:03.816Z,6.65
2022-08-12T03:33:06.372Z,5.97
2022-08-12T03:34:11.168Z,6.40
2022-08-12T03:35:40.772Z,6.13
2022-08-12T03:36:41.794Z,6.05
2022-08-12T03:37:45.471Z,6.22
2022-08-12T03:39:00.928Z,6.57
2022-08-12T03:40:02.616Z,6.22
2022-08-12T03:41:29.993Z,6.20
2022-08-12T03:42:40.654Z,6.03
2022-08-12T03:44:17.031Z,6.47
2022-08-12T03:45:52.547Z,5.65
2022-08-12T03:47:23.337Z,6.50
2022-08-12T03:48:44.063Z,6.15
2022-08-12T03:50:04.642Z,6.10
2022-08-12T03:51:25.957Z,6.43
2022-08-12T03:52:46.468Z,6.53
2022-08-12T03:54:07.272Z,5.90
2022-08-12T03:55:27.392Z,6.30
2022-08-12T03:56:48.847Z,6.75
2022-08-12T03:58:09.226Z,6.13
2022-08-12T03:59:29.554Z,6.15
2022-08-12T04:00:33.188Z,6.53
2022-08-12T04:01:40.657Z,6.00
2022-08-12T04:02:42.741Z,6.10
2022-08-12T04:03:53.670Z,6.53
2022-08-12T04:04:56.015Z,6.75
2022-08-12T04:05:57.861Z,6.38
2022-08-12T04:07:01.547Z,5.82
2022-08-12T04:08:03.591Z,6.82
2022-08-12T04:09:15.803Z,6.45
2022-08-12T04:10:19.567Z,6.40
2022-08-12T04:11:46.904Z,6.60
2022-08-12T04:13:18.554Z,6.40
2022-08-12T04:14:20.682Z,6.10
2022-08-12T04:15:25.905Z,5.57
2022-08-12T04:16:27.741Z,6.05
2022-08-12T04:17:31.521Z,5.97
2022-08-12T04:18:33.537Z,6.30
2022-08-12T04:19:35.574Z,6.20
2022-08-12T04:20:37.448Z,5.85
2022-08-12T04:22:01.227Z,6.50
2022-08-12T04:23:02.466Z,6.40
2022-08-12T04:24:05.568Z,6.32
2022-08-12T04:25:10.753Z,6.47
2022-08-12T04:26:12.405Z,6.32
2022-08-12T04:27:13.974Z,6.30
2022-08-12T04:28:15.559Z,6.72
2022-08-12T04:29:19.558Z,6.65
2022-08-12T04:30:32.530Z,6.22
2022-08-12T04:31:41.467Z,5.65
2022-08-12T04:32:44.682Z,6.72
2022-08-12T04:33:47.126Z,6.55
2022-08-12T04:34:49.997Z,6.20
2022-08-12T04:35:51.812Z,6.78
2022-08-12T04:36:53.882Z,6.05
2022-08-12T04:37:58.905Z,6.38
2022-08-12T04:39:04.383Z,6.05
2022-08-12T04:40:07.210Z,6.05
2022-08-12T04:41:10.886Z,6.43
2022-08-12T04:42:13.084Z,9.00
2022-08-12T04:44:00.661Z,13.70
2022-08-12T04:44:36.369Z,12.90
2022-08-12T04:45:39.654Z,12.20
2022-08-12T04:46:42.264Z,9.50
2022-08-12T04:47:44.315Z,7.22
2022-08-12T04:48:47.155Z,6.70
2022-08-12T04:49:50.814Z,7.38
2022-08-12T04:50:52.492Z,6.43
2022-08-12T04:51:59.282Z,6.25
2022-08-12T04:53:02.064Z,6.78
2022-08-12T04:54:06.081Z,6.75
2022-08-12T04:55:10.559Z,6.68
2022-08-12T04:56:12.384Z,6.32
2022-08-12T04:57:14.278Z,5.75
2022-08-12T04:58:15.934Z,5.60
2022-08-12T04:59:46.387Z,5.75
2022-08-12T05:00:50.145Z,5.60
2022-08-12T05:01:52.666Z,5.82
2022-08-12T05:02:54.434Z,6.10
2022-08-12T05:03:57.689Z,5.38
2022-08-12T05:05:01.430Z,5.78
2022-08-12T05:06:03.078Z,5.35
2022-08-12T05:07:08.209Z,5.78
2022-08-12T05:08:16.292Z,6.05
2022-08-12T05:09:17.868Z,6.20
2022-08-12T05:10:21.825Z,5.65
2022-08-12T05:11:37.765Z,5.55
2022-08-12T05:12:59.824Z,5.63
2022-08-12T05:14:01.633Z,5.75
2022-08-12T05:15:19.811Z,5.53
2022-08-12T05:16:31.173Z,6.22
2022-08-12T05:17:35.943Z,5.70
2022-08-12T05:18:39.817Z,6.18
2022-08-12T05:19:43.425Z,6.57
2022-08-12T05:20:46.154Z,6.15
2022-08-12T05:21:47.999Z,6.10
2022-08-12T05:22:53.149Z,5.68
2022-08-12T05:24:00.617Z,6.22
2022-08-12T05:25:02.519Z,6.07
2022-08-12T05:26:06.161Z,6.85
2022-08-12T05:27:08.008Z,6.38
2022-08-12T05:28:09.689Z,6.10
2022-08-12T05:30:07.353Z,6.40
2022-08-12T05:30:34.994Z,6.75
2022-08-12T05:31:42.563Z,5.85
2022-08-12T05:32:49.904Z,6.40
2022-08-12T05:33:55.196Z,6.00
2022-08-12T05:34:56.886Z,6.28
2022-08-12T05:35:58.985Z,6.05
2022-08-12T05:37:03.891Z,6.57
2022-08-12T05:38:25.574Z,6.40
2022-08-12T05:39:27.383Z,6.45
2022-08-12T05:40:30.783Z,5.97
2022-08-12T05:41:35.398Z,6.60
2022-08-12T05:42:37.072Z,6.22
2022-08-12T05:43:38.873Z,6.68
2022-08-12T05:44:40.649Z,6.10
2022-08-12T05:45:44.839Z,6.20
2022-08-12T05:46:46.666Z,6.55
2022-08-12T05:47:53.711Z,6.53
2022-08-12T05:48:56.591Z,6.40
2022-08-12T05:49:59.410Z,6.68
2022-08-12T05:51:01.078Z,6.32
2022-08-12T05:52:02.859Z,6.68
2022-08-12T05:53:05.713Z,6.63
2022-08-12T05:54:07.375Z,6.40
2022-08-12T05:55:10.371Z,6.45
2022-08-12T05:56:34.265Z,7.00
2022-08-12T05:57:36.217Z,7.03
2022-08-12T05:58:37.789Z,6.88
2022-08-12T05:59:39.934Z,7.07
2022-08-12T06:00:42.506Z,6.57
2022-08-12T06:02:12.302Z,6.80
2022-08-12T06:03:08.270Z,6.97
2022-08-12T06:04:09.969Z,6.75
2022-08-12T06:05:12.945Z,6.95
2022-08-12T06:06:18.961Z,6.80
2022-08-12T06:07:59.449Z,6.45
2022-08-12T06:08:44.962Z,6.72
2022-08-12T06:09:46.554Z,7.32
2022-08-12T06:10:50.321Z,6.88
2022-08-12T06:12:04.739Z,6.50
2022-08-12T06:13:09.171Z,7.07
2022-08-12T06:14:11.800Z,6.93
2022-08-12T06:15:13.748Z,6.38
2022-08-12T06:16:17.459Z,6.65
2022-08-12T06:17:19.077Z,7.10
2022-08-12T06:18:20.784Z,6.28
2022-08-12T06:19:22.807Z,6.95
2022-08-12T06:20:29.403Z,6.18
2022-08-12T06:21:31.727Z,6.85
2022-08-12T06:22:35.132Z,6.57
2022-08-12T06:23:42.310Z,5.70
2022-08-12T06:24:44.353Z,6.38
2022-08-12T06:25:46.529Z,6.60
2022-08-12T06:26:48.127Z,6.72
2022-08-12T06:28:06.517Z,6.45
2022-08-12T06:29:10.016Z,6.43
2022-08-12T06:30:18.536Z,6.47
2022-08-12T06:31:27.183Z,6.32
2022-08-12T06:32:29.497Z,7.15
2022-08-12T06:34:00.662Z,7.13
2022-08-12T06:35:24.930Z,7.35
2022-08-12T06:36:22.793Z,7.10
2022-08-12T06:37:25.625Z,6.38
2022-08-12T06:38:30.626Z,7.00
2022-08-12T06:39:32.216Z,7.25
2022-08-12T06:40:52.805Z,7.13
2022-08-12T06:42:31.883Z,6.93
2022-08-12T06:44:05.582Z,6.85
2022-08-12T06:45:01.297Z,6.63
2022-08-12T06:46:06.135Z,6.75
2022-08-12T06:47:07.876Z,6.57
2022-08-12T06:48:11.109Z,6.75
2022-08-12T06:49:13.258Z,6.70
2022-08-12T06:50:16.685Z,7.45
2022-08-12T06:51:20.801Z,7.38
2022-08-12T06:52:24.923Z,6.85
2022-08-12T06:53:29.882Z,7.00
2022-08-12T06:54:33.264Z,7.13
2022-08-12T06:55:36.317Z,7.20
2022-08-12T06:57:02.948Z,6.72
2022-08-12T06:58:07.507Z,6.85
2022-08-12T06:59:14.148Z,6.57
2022-08-12T07:00:19.776Z,7.07
2022-08-12T07:01:21.576Z,7.22
2022-08-12T07:02:23.607Z,6.93
2022-08-12T07:03:29.779Z,7.03
2022-08-12T07:04:36.816Z,6.60
2022-08-12T07:05:40.124Z,6.55
2022-08-12T07:06:42.334Z,6.90
2022-08-12T07:07:47.960Z,7.28
2022-08-12T07:08:49.775Z,6.18
2022-08-12T07:10:00.159Z,7.00
2022-08-12T07:11:11.941Z,6.55
2022-08-12T07:12:18.862Z,6.53
2022-08-12T07:13:20.861Z,6.57
2022-08-12T07:14:22.605Z,6.65
2022-08-12T07:15:25.409Z,6.75
2022-08-12T07:16:28.385Z,6.53
2022-08-12T07:17:36.148Z,6.38
2022-08-12T07:18:38.392Z,6.40
2022-08-12T07:19:45.180Z,6.55
2022-08-12T07:20:53.038Z,7.57
2022-08-12T07:21:59.860Z,6.78
2022-08-12T07:23:08.852Z,6.95
2022-08-12T07:24:10.506Z,7.13
2022-08-12T07:25:31.061Z,7.00
2022-08-12T07:26:44.501Z,7.35
2022-08-12T07:27:46.766Z,6.35
2022-08-12T07:28:50.428Z,6.43
2022-08-12T07:30:03.464Z,7.05
2022-08-12T07:31:12.415Z,6.28
2022-08-12T07:32:23.658Z,7.00
2022-08-12T07:33:28.337Z,5.78
2022-08-12T07:34:29.939Z,6.22
2022-08-12T07:35:33.294Z,5.88
2022-08-12T07:36:35.428Z,6.05
2022-08-12T07:37:42.090Z,6.40
2022-08-12T07:38:47.929Z,6.35
2022-08-12T07:39:59.493Z,6.72
2022-08-12T07:41:16.236Z,6.30
2022-08-12T07:42:18.910Z,6.22
2022-08-12T07:43:20.581Z,5.22
2022-08-12T07:44:22.156Z,5.43
2022-08-12T07:45:24.592Z,5.68
2022-08-12T07:46:37.712Z,5.47
2022-08-12T07:47:43.525Z,6.20
2022-08-12T07:48:54.242Z,6.38
2022-08-12T07:50:06.842Z,5.70
2022-08-12T07:51:09.489Z,6.15
2022-08-12T07:52:11.077Z,6.18
2022-08-12T07:53:12.652Z,6.65
2022-08-12T07:54:14.352Z,5.78
2022-08-12T07:55:16.796Z,6.00
2022-08-12T07:56:18.925Z,5.78
2022-08-12T07:57:21.155Z,6.05
2022-08-12T07:58:26.150Z,6.30
2022-08-12T07:59:27.990Z,6.00
2022-08-12T08:00:32.679Z,5.90
2022-08-12T08:01:37.983Z,6.38
2022-08-12T08:02:39.928Z,5.82
2022-08-12T08:04:03.002Z,6.38
2022-08-12T08:05:05.129Z,5.68
2022-08-12T08:06:20.209Z,6.07
2022-08-12T08:07:22.945Z,6.05
2022-08-12T08:08:27.675Z,5.72
2022-08-12T08:09:32.407Z,5.68
2022-08-12T08:10:34.069Z,5.53
2022-08-12T08:11:54.209Z,5.82
2022-08-12T08:12:58.737Z,5.45
2022-08-12T08:14:04.339Z,5.80
2022-08-12T08:15:06.151Z,5.85
2022-08-12T08:16:08.739Z,6.05
2022-08-12T08:17:13.824Z,6.18
2022-08-12T08:18:26.248Z,5.43
2022-08-12T08:19:29.340Z,5.50
2022-08-12T08:20:41.106Z,6.05
2022-08-12T08:21:42.912Z,5.93
2022-08-12T08:22:45.256Z,5.60
2022-08-12T08:24:05.625Z,6.00
2022-08-12T08:25:34.995Z,5.82
2022-08-12T08:26:35.306Z,5.82
2022-08-12T08:27:47.121Z,5.68
2022-08-12T08:28:48.857Z,5.88
2022-08-12T08:29:50.969Z,6.13
2022-08-12T08:30:53.660Z,5.53
2022-08-12T08:31:58.451Z,6.05
2022-08-12T08:33:00.332Z,5.65
2022-08-12T08:34:33.869Z,5.45
2022-08-12T08:35:26.071Z,5.05
2022-08-12T08:36:32.831Z,5.85
2022-08-12T08:37:37.147Z,5.68
2022-08-12T08:38:41.725Z,6.15
2022-08-12T08:40:17.570Z,5.57
2022-08-12T08:42:15.825Z,5.68
2022-08-12T08:43:04.819Z,5.35
2022-08-12T08:44:06.842Z,5.82
2022-08-12T08:45:13.069Z,5.18
2022-08-12T08:46:14.829Z,5.28
2022-08-12T08:47:16.580Z,5.15
2022-08-12T08:48:18.798Z,5.38
2022-08-12T08:49:20.761Z,5.50
2022-08-12T08:50:22.448Z,5.15
2022-08-12T08:51:26.274Z,5.32
2022-08-12T08:52:39.289Z,5.03
2022-08-12T08:53:43.326Z,5.55
2022-08-12T08:54:53.593Z,5.78
2022-08-12T08:56:04.528Z,5.25
2022-08-12T08:57:08.482Z,5.47
2022-08-12T08:58:11.256Z,5.32
2022-08-12T08:59:14.109Z,5.32
2022-08-12T09:00:17.700Z,5.35
2022-08-12T09:01:21.689Z,4.63
2022-08-12T09:02:23.454Z,5.25
2022-08-12T09:05:07.391Z,4.97
2022-08-12T09:05:12.608Z,5.45
2022-08-12T09:06:08.451Z,5.43
2022-08-12T09:07:51.642Z,5.20
2022-08-12T09:08:41.112Z,5.45
2022-08-12T09:12:06.625Z,5.18
2022-08-12T09:13:07.903Z,4.90
2022-08-12T09:14:29.136Z,5.07
2022-08-12T09:15:35.456Z,5.25
2022-08-12T09:16:42.703Z,5.40
2022-08-12T09:18:08.487Z,5.38
2022-08-12T09:20:37.081Z,5.40
2022-08-12T09:21:54.982Z,5.40
2022-08-12T09:22:58.902Z,5.57
2022-08-12T09:25:26.416Z,5.80
2022-08-12T09:26:45.895Z,5.15
2022-08-12T09:28:03.716Z,5.75
2022-08-12T09:29:12.248Z,5.70
2022-08-12T09:30:17.941Z,5.35
2022-08-12T09:32:06.867Z,5.78
2022-08-12T09:33:05.978Z,5.20
2022-08-12T09:34:28.728Z,5.10
2022-08-12T09:35:43.051Z,5.70
2022-08-12T09:36:58.147Z,5.85
2022-08-12T09:38:03.408Z,5.72
2022-08-12T09:40:02.543Z,4.63
2022-08-12T09:41:03.788Z,5.38
2022-08-12T09:42:39.608Z,5.32
2022-08-12T09:44:38.233Z,5.28
2022-08-12T09:46:11.814Z,5.20
2022-08-12T09:47:16.641Z,5.28
2022-08-12T09:48:36.087Z,5.20
2022-08-12T09:49:47.469Z,5.00
2022-08-12T09:51:01.713Z,5.75
2022-08-12T09:52:03.650Z,5.22
2022-08-12T09:53:15.026Z,5.18
2022-08-12T09:54:31.419Z,4.80
2022-08-12T09:55:57.398Z,4.95
2022-08-12T09:58:07.406Z,4.82
2022-08-12T09:58:58.445Z,5.22
2022-08-12T10:00:15.621Z,5.13
2022-08-12T10:01:15.442Z,4.80
2022-08-12T10:02:44.155Z,5.05
2022-08-12T10:04:03.359Z,5.35
2022-08-12T10:05:09.248Z,4.88
2022-08-12T10:06:27.409Z,4.70
2022-08-12T10:07:39.808Z,4.80
2022-08-12T10:08:59.024Z,4.20
2022-08-12T10:10:01.027Z,4.97
2022-08-12T10:11:23.199Z,5.00
2022-08-12T10:12:43.651Z,4.25
2022-08-12T10:14:05.212Z,4.57
2022-08-12T10:15:07.472Z,4.85
2022-08-12T10:16:18.798Z,4.85
2022-08-12T10:17:24.184Z,6.18
2022-08-12T10:18:26.285Z,5.32
2022-08-12T10:19:36.558Z,6.55
2022-08-12T10:20:41.659Z,4.80
2022-08-12T10:21:45.330Z,5.20
2022-08-12T10:23:00.940Z,5.75
2022-08-12T10:24:20.310Z,4.72
2022-08-12T10:26:18.578Z,5.40
2022-08-12T10:27:20.669Z,4.57
2022-08-12T10:29:02.840Z,4.60
2022-08-12T10:30:40.087Z,5.00
2022-08-12T10:31:28.145Z,4.57
2022-08-12T10:32:59.602Z,4.95
2022-08-12T10:34:23.564Z,4.93
2022-08-12T10:35:37.823Z,5.03
2022-08-12T10:36:42.770Z,5.13
2022-08-12T10:38:38.444Z,5.18
2022-08-12T10:39:44.222Z,4.93
2022-08-12T10:40:54.775Z,4.97
2022-08-12T10:42:15.054Z,5.05
2022-08-12T10:43:55.478Z,4.78
2022-08-12T10:45:01.305Z,4.90
2022-08-12T10:46:02.866Z,5.28
2022-08-12T10:47:26.616Z,4.15
2022-08-12T10:48:41.183Z,4.53
2022-08-12T10:50:05.871Z,4.55
2022-08-12T10:52:05.422Z,5.10
2022-08-12T10:52:33.915Z,5.38
2022-08-12T10:53:44.075Z,5.30
2022-08-12T10:54:49.171Z,5.00
2022-08-12T10:55:56.472Z,5.63
2022-08-12T10:57:00.615Z,5.28
2022-08-12T10:58:27.622Z,5.15
2022-08-12T11:00:31.387Z,5.18
2022-08-12T11:01:26.218Z,4.22
2022-08-12T11:04:20.235Z,4.38
2022-08-12T11:04:28.008Z,4.78
2022-08-12T11:05:17.579Z,4.43
2022-08-12T11:07:07.718Z,4.40
2022-08-12T11:08:36.142Z,4.85
2022-08-12T11:09:10.306Z,4.78
2022-08-12T11:10:13.955Z,4.53
2022-08-12T11:12:07.895Z,4.63
2022-08-12T11:12:58.643Z,4.70
2022-08-12T11:14:02.124Z,4.43
2022-08-12T11:15:18.541Z,4.30
2022-08-12T11:16:22.774Z,4.35
2022-08-12T11:17:42.845Z,4.82
2022-08-12T11:18:46.521Z,4.47
2022-08-12T11:19:57.181Z,4.60
2022-08-12T11:20:59.662Z,4.72
2022-08-12T11:22:03.301Z,4.65
2022-08-12T11:23:24.969Z,4.10
2022-08-12T11:24:31.763Z,4.70
2022-08-12T11:25:53.715Z,4.50
2022-08-12T11:27:59.302Z,4.75
2022-08-12T11:29:05.846Z,4.70
2022-08-12T11:30:31.223Z,4.80
2022-08-12T11:31:55.869Z,4.57
2022-08-12T11:32:55.594Z,5.55
2022-08-12T11:34:05.191Z,4.88
2022-08-12T11:35:14.918Z,5.03
2022-08-12T11:36:21.768Z,5.00
2022-08-12T11:37:24.907Z,5.22
2022-08-12T11:38:28.217Z,4.75
2022-08-12T11:40:02.895Z,5.32
2022-08-12T11:40:51.393Z,5.05
2022-08-12T11:41:54.082Z,4.90
2022-08-12T11:43:19.176Z,5.22
2022-08-12T11:44:37.033Z,5.07
2022-08-12T11:45:46.845Z,4.90
2022-08-12T11:46:51.334Z,5.10
2022-08-12T11:47:55.860Z,5.13
2022-08-12T11:48:57.445Z,5.00
2022-08-12T11:49:59.224Z,5.05
2022-08-12T11:51:00.837Z,4.75
2022-08-12T11:52:03.849Z,5.20
2022-08-12T11:53:05.523Z,5.15
2022-08-12T11:54:29.661Z,5.00
2022-08-12T11:55:33.092Z,5.25
2022-08-12T11:56:38.114Z,4.90
2022-08-12T11:58:17.264Z,4.85
2022-08-12T12:02:05.356Z,5.20
2022-08-12T12:03:07.295Z,5.25
2022-08-12T12:04:08.935Z,5.40
2022-08-12T12:05:12.128Z,4.82
2022-08-12T12:06:16.221Z,5.20
2022-08-12T12:07:18.906Z,5.22
2022-08-12T12:08:38.852Z,5.28
2022-08-12T12:09:53.597Z,4.97
2022-08-12T12:10:55.599Z,4.90
2022-08-12T12:11:57.815Z,5.30
2022-08-12T12:12:59.465Z,5.22
2022-08-12T12:14:08.509Z,5.38
2022-08-12T12:15:13.729Z,5.05
2022-08-12T12:16:15.383Z,4.88
2022-08-12T12:17:17.049Z,5.32
2022-08-12T12:18:32.159Z,5.00
2022-08-12T12:19:39.875Z,4.93
2022-08-12T12:20:48.344Z,5.05
2022-08-12T12:21:49.992Z,4.95
2022-08-12T12:22:51.587Z,5.00
2022-08-12T12:23:54.391Z,4.85
2022-08-12T12:25:13.367Z,4.90
2022-08-12T12:26:35.060Z,5.25
2022-08-12T12:28:04.065Z,5.22
2022-08-12T12:30:04.069Z,5.10
2022-08-12T12:30:29.999Z,5.22
2022-08-12T12:32:10.261Z,5.22
2022-08-12T12:32:54.869Z,5.00
2022-08-12T12:33:58.122Z,5.50
2022-08-12T12:35:17.754Z,5.40
2022-08-12T12:36:29.275Z,5.20
2022-08-12T12:38:04.057Z,5.50
2022-08-12T12:38:53.799Z,5.03
2022-08-12T12:39:58.121Z,5.60
2022-08-12T12:41:00.047Z,5.03
2022-08-12T12:42:45.247Z,5.45
2022-08-12T12:43:43.084Z,4.90
2022-08-12T12:44:50.929Z,5.00
2022-08-12T12:45:55.278Z,5.20
2022-08-12T12:46:56.887Z,4.53
2022-08-12T12:48:09.641Z,5.00
2022-08-12T12:49:15.324Z,4.88
2022-08-12T12:50:35.142Z,5.10
2022-08-12T12:51:49.007Z,5.15
2022-08-12T12:52:51.985Z,5.65
2022-08-12T12:54:07.666Z,5.05
2022-08-12T12:55:11.270Z,5.00
2022-08-12T12:56:34.038Z,5.50
2022-08-12T12:58:00.580Z,5.65
2022-08-12T12:59:06.034Z,5.07
2022-08-12T13:00:15.317Z,4.90
2022-08-12T13:01:30.898Z,5.28
2022-08-12T13:02:40.299Z,5.18
2022-08-12T13:03:49.533Z,5.18
2022-08-12T13:04:51.271Z,5.35
2022-08-12T13:05:55.386Z,5.40
2022-08-12T13:06:58.268Z,5.50
2022-08-12T13:08:01.994Z,5.72
2022-08-12T13:09:04.012Z,5.43
2022-08-12T13:10:06.756Z,5.75
2022-08-12T13:11:08.496Z,5.65
2022-08-12T13:12:10.786Z,5.72
2022-08-12T13:14:10.323Z,5.80
2022-08-12T13:14:35.144Z,6.07
2022-08-12T13:15:45.411Z,6.10
2022-08-12T13:16:49.392Z,6.20
2022-08-12T13:18:02.172Z,5.80
2022-08-12T13:19:07.701Z,6.15
2022-08-12T13:20:10.655Z,5.63
2022-08-12T13:21:32.693Z,6.07
2022-08-12T13:22:35.312Z,5.65
2022-08-12T13:23:37.802Z,5.25
2022-08-12T13:24:40.441Z,5.75
2022-08-12T13:25:42.140Z,6.18
2022-08-12T13:26:45.854Z,5.68
2022-08-12T13:27:48.642Z,5.55
2022-08-12T13:28:55.852Z,5.68
2022-08-12T13:30:01.995Z,5.22
2022-08-12T13:31:06.491Z,6.18
2022-08-12T13:32:28.327Z,6.40
2022-08-12T13:34:28.636Z,6.28
2022-08-12T13:34:53.588Z,6.18
2022-08-12T13:36:11.155Z,5.82
2022-08-12T13:37:17.845Z,6.05
2022-08-12T13:38:26.564Z,5.95
2022-08-12T13:39:36.449Z,5.72
2022-08-12T13:40:40.163Z,5.72
2022-08-12T13:41:41.729Z,6.20
2022-08-12T13:42:45.077Z,5.82
2022-08-12T13:43:46.818Z,6.00
2022-08-12T13:44:53.748Z,5.63
2022-08-12T13:45:56.043Z,6.60
2022-08-12T13:46:58.718Z,6.63
2022-08-12T13:48:04.638Z,6.80
2022-08-12T13:49:07.796Z,6.60
2022-08-12T13:50:09.838Z,6.40
2022-08-12T13:51:11.824Z,6.70
2022-08-12T13:52:13.777Z,6.45
2022-08-12T13:53:23.925Z,6.20
2022-08-12T13:54:28.064Z,6.40
2022-08-12T13:55:30.976Z,6.25
2022-08-12T13:56:34.919Z,6.85
2022-08-12T13:57:44.597Z,6.53
2022-08-12T13:58:49.303Z,6.60
2022-08-12T14:00:00.334Z,6.00
2022-08-12T14:01:05.984Z,5.80
2022-08-12T14:02:13.406Z,6.00
2022-08-12T14:03:16.220Z,5.88
2022-08-12T14:04:19.084Z,5.82
2022-08-12T14:05:30.181Z,6.25
2022-08-12T14:06:41.113Z,6.22
2022-08-12T14:08:06.103Z,6.25
2022-08-12T14:09:17.885Z,5.72
2022-08-12T14:10:37.474Z,5.88
2022-08-12T14:11:39.146Z,5.53
2022-08-12T14:12:54.407Z,5.93
2022-08-12T14:14:05.731Z,6.40
2022-08-12T14:15:14.415Z,6.10
2022-08-12T14:16:37.674Z,6.68
2022-08-12T14:17:39.042Z,5.60
2022-08-12T14:18:42.195Z,5.93
2022-08-12T14:20:03.951Z,5.82
2022-08-12T14:21:10.129Z,5.55
2022-08-12T14:22:20.188Z,5.85
2022-08-12T14:24:04.754Z,5.80
2022-08-12T14:24:44.573Z,6.07
2022-08-12T14:25:47.329Z,5.90
2022-08-12T14:26:53.158Z,5.90
2022-08-12T14:28:06.665Z,5.97
2022-08-12T14:29:09.695Z,5.05
2022-08-12T14:30:24.098Z,4.00
2022-08-12T14:31:32.194Z,3.60
2022-08-12T14:32:35.835Z,3.65
2022-08-12T14:33:47.670Z,3.20
2022-08-12T14:34:51.363Z,3.33
2022-08-12T14:35:54.129Z,3.38
2022-08-12T14:36:56.415Z,3.60
2022-08-12T14:37:59.232Z,3.50
2022-08-12T14:39:04.762Z,3.58
2022-08-12T14:40:07.414Z,3.50
2022-08-12T14:41:11.904Z,3.30
2022-08-12T14:42:16.264Z,3.70
2022-08-12T14:43:20.017Z,3.70
2022-08-12T14:44:59.512Z,3.60
2022-08-12T14:45:49.857Z,3.97
2022-08-12T14:46:55.779Z,3.30
2022-08-12T14:47:58.987Z,3.55
2022-08-12T14:49:11.475Z,4.00
2022-08-12T14:50:58.547Z,3.72
2022-08-12T14:52:55.558Z,3.65
2022-08-12T14:57:20.465Z,3.70
2022-08-12T14:59:20.172Z,3.10
2022-08-12T15:00:45.958Z,3.28
2022-08-12T15:01:54.515Z,2.92
2022-08-12T15:02:56.513Z,2.90
2022-08-12T15:04:02.310Z,3.00
2022-08-12T15:05:04.361Z,2.85
2022-08-12T15:06:39.294Z,3.10
2022-08-12T15:07:33.405Z,2.85
2022-08-12T15:08:50.574Z,2.97
2022-08-12T15:09:52.786Z,2.92
2022-08-12T15:10:55.308Z,2.83
2022-08-12T15:12:03.187Z,2.97
2022-08-12T15:13:07.556Z,3.00
2022-08-12T15:14:09.615Z,2.88
2022-08-12T15:15:11.622Z,2.70
2022-08-12T15:16:13.554Z,3.10
2022-08-12T15:17:38.048Z,2.80
2022-08-12T15:18:54.979Z,2.53
2022-08-12T15:20:31.428Z,2.58
2022-08-12T15:21:19.918Z,2.85
2022-08-12T15:22:38.383Z,2.80
2022-08-12T15:23:55.521Z,2.97
2022-08-12T15:24:58.785Z,2.95
2022-08-12T15:26:21.192Z,2.88
2022-08-12T15:28:03.391Z,2.83
2022-08-12T15:28:55.080Z,2.70
2022-08-12T15:29:56.662Z,3.00
2022-08-12T15:30:58.607Z,3.33
2022-08-12T15:32:10.711Z,2.47
2022-08-12T15:33:18.993Z,3.08
2022-08-12T15:34:22.941Z,2.97
2022-08-12T15:35:31.480Z,2.45
2022-08-12T15:36:54.717Z,2.75
2022-08-12T15:38:10.206Z,2.78
2022-08-12T15:39:17.118Z,2.80
2022-08-12T15:40:30.282Z,2.28
2022-08-12T15:41:50.165Z,2.92
2022-08-12T15:42:54.383Z,3.10
2022-08-12T15:44:37.964Z,2.75
2022-08-12T15:45:21.328Z,3.00
2022-08-12T15:46:27.517Z,2.85
2022-08-12T15:47:47.971Z,3.75
2022-08-12T15:48:51.761Z,3.75
2022-08-12T15:50:00.049Z,3.70